Latest Weather Observations for Esperance Airport

IDW60801

Issued at 9:43 pm WST Wednesday 8 July 2020 (issued every 10 minutes, with the page automatically refreshed every 10 minutes)

About weather observations | Map of weather stations | Latest weather observations for WA | Other Formats
Station Details ID: 009542 Name: ESPERANCE AERO Lat: -33.68 Lon: 121.83 Height: 142.0 m
Data from the previous 72 hours. | See also: Recent months at Esperance Airport
Date/Time
WST
Temp
°C
App
Temp
°C
Dew
Point
°C
Rel
Hum
%
Delta-T
°C
Wind Press
QNH
hPa
Press
MSL
hPa
Rain since
9am
mm
Dir  Spd
km/h
Gust
km/h
Spd
kts
Gust
kts
08/09:30pm 10.7 8.0 10.5 99 0.1 WNW 15 19 8 10 1021.6 1021.7 1.6
08/09:29pm 10.6 7.9 10.4 99 0.1 WNW 15 19 8 10 1021.6 1021.7 1.6
08/09:00pm 10.9 8.3 10.7 99 0.1 WNW 15 20 8 11 1021.5 1021.6 1.6
08/08:44pm 10.6 7.9 10.3 98 0.2 W 15 19 8 10 1021.7 1021.8 1.6
08/08:30pm 10.8 8.5 10.5 98 0.2 W 13 17 7 9 1021.7 1021.8 1.6
08/08:13pm 10.8 8.8 10.3 97 0.3 WSW 11 13 6 7 1021.8 1021.9 1.0
08/08:00pm 10.8 9.2 10.3 97 0.3 W 9 11 5 6 1021.6 1021.7 0.6
08/07:54pm 10.9 9.4 10.4 97 0.3 WSW 9 11 5 6 1021.6 1021.7 0.6
08/07:30pm 10.8 8.4 10.2 96 0.3 W 13 17 7 9 1021.4 1021.5 0.4
08/07:08pm 10.8 7.7 10.2 96 0.3 W 17 22 9 12 1021.4 1021.5 0.4
08/07:00pm 11.0 7.9 10.4 96 0.3 W 17 22 9 12 1021.4 1021.5 0.4
08/06:50pm 11.0 8.3 10.2 95 0.4 W 15 20 8 11 1021.4 1021.5 0.4
08/06:30pm 10.7 7.5 9.8 94 0.5 WNW 17 20 9 11 1021.3 1021.4 0.4
08/06:00pm 10.5 8.0 9.6 94 0.5 WNW 13 15 7 8 1021.0 1021.1 0.4
08/05:30pm 11.2 9.2 10.1 93 0.6 WSW 11 13 6 7 1020.8 1020.9 0.4
08/05:00pm 11.6 9.3 10.3 92 0.7 SW 13 19 7 10 1020.7 1020.8 0.4
08/04:30pm 12.2 8.9 10.9 92 0.7 WSW 19 24 10 13 1020.5 1020.6 0.4
08/04:00pm 12.2 9.0 11.4 95 0.4 W 19 24 10 13 1020.5 1020.6 0.4
08/03:35pm 11.9 8.1 11.3 96 0.3 W 22 30 12 16 1020.3 1020.4 0.4
08/03:30pm 11.8 8.0 11.2 96 0.3 WSW 22 30 12 16 1020.3 1020.4 0.4
08/03:00pm 11.6 6.5 10.5 93 0.6 SW 28 35 15 19 1020.5 1020.6 0.0
08/02:43pm 12.3 5.1 10.4 88 1.0 SW 39 54 21 29 1020.3 1020.4 0.0
08/02:30pm 13.2 5.9 10.2 82 1.6 SW 39 50 21 27 1020.0 1020.1 0.0
08/02:00pm 14.5 8.7 8.0 65 3.3 SW 28 37 15 20 1019.8 1019.9 0.0
08/01:30pm 15.1 8.3 7.9 62 3.6 WSW 33 41 18 22 1020.0 1020.1 0.0
08/01:00pm 14.9 8.3 7.9 63 3.5 WSW 32 39 17 21 1020.2 1020.3 0.0
08/12:30pm 15.2 8.7 8.0 62 3.6 WSW 32 39 17 21 1020.2 1020.3 0.0
08/12:00pm 15.2 8.5 8.0 62 3.6 W 33 41 18 22 1020.6 1020.7 0.0
08/11:30am 14.9 8.7 7.9 63 3.5 W 30 41 16 22 1020.9 1021.0 0.0
08/11:00am 14.6 8.1 8.3 66 3.2 W 32 39 17 21 1021.1 1021.2 0.0
08/10:30am 13.9 8.1 7.9 67 3.0 W 28 35 15 19 1021.3 1021.4 0.0
08/10:00am 13.2 7.3 7.6 69 2.8 W 28 35 15 19 1021.5 1021.6 0.0
08/09:30am 12.4 7.5 8.5 77 2.0 W 24 30 13 16 1021.4 1021.5 0.0
08/09:00am 11.4 6.6 8.8 84 1.3 WNW 24 30 13 16 1021.4 1021.5 0.2
08/08:30am 10.7 6.4 9.5 92 0.6 WNW 22 30 12 16 1021.1 1021.2 0.2
08/08:00am 9.5 5.5 8.9 96 0.3 WNW 20 26 11 14 1021.0 1021.1 0.2
08/07:30am 8.8 4.7 8.0 95 0.4 WNW 19 24 10 13 1020.8 1020.9 0.2
08/07:00am 8.9 5.2 8.0 94 0.4 WNW 17 20 9 11 1020.3 1020.4 0.2
08/06:30am 9.1 5.4 7.9 92 0.6 WNW 17 20 9 11 1020.0 1020.1 0.2
08/06:00am 9.6 5.6 8.2 91 0.7 WNW 19 24 10 13 1019.8 1019.9 0.2
08/05:30am 9.8 5.6 8.2 90 0.8 WNW 20 30 11 16 1019.8 1019.9 0.2
08/05:00am 10.0 5.4 8.1 88 0.9 WNW 22 30 12 16 1019.6 1019.7 0.2
08/04:30am 10.2 6.0 8.3 88 0.9 NW 20 30 11 16 1019.5 1019.5 0.2
08/04:00am 10.2 6.0 8.1 87 1.0 WNW 20 28 11 15 1019.6 1019.7 0.2
08/03:30am 10.7 6.5 8.1 84 1.3 NW 20 26 11 14 1019.7 1019.8 0.2
08/03:00am 11.2 7.0 8.2 82 1.5 NW 20 30 11 16 1019.7 1019.8 0.2
08/02:30am 11.5 7.3 8.2 80 1.6 NW 20 32 11 17 1019.8 1019.9 0.2
08/02:00am 11.8 6.9 8.3 79 1.7 NW 24 32 13 17 1019.8 1019.9 0.2
08/01:30am 10.9 6.5 7.6 80 1.6 NW 20 28 11 15 1019.9 1020.0 0.2
08/01:00am 10.8 6.6 7.3 79 1.7 NW 19 24 10 13 1019.9 1020.0 0.2
08/12:30am 10.9 6.4 7.0 77 1.9 NW 20 24 11 13 1020.0 1020.1 0.2
08/12:00am 11.8 7.5 7.1 73 2.3 NW 19 26 10 14 1020.2 1020.3 0.2
 
Date/Time
WST
Temp
°C
App
Temp
°C
Dew
Point
°C
Rel
Hum
%
Delta-T
°C
Wind Press
QNH
hPa
Press
MSL
hPa
Rain since
9am
mm
Dir  Spd
km/h
Gust
km/h
Spd
kts
Gust
kts
07/11:30pm 12.4 8.6 7.5 72 2.4 NW 17 22 9 12 1020.4 1020.5 0.2
07/11:00pm 12.6 8.4 7.5 71 2.5 NW 19 24 10 13 1020.5 1020.6 0.2
07/10:30pm 12.4 9.3 7.3 71 2.5 NW 13 17 7 9 1020.7 1020.8 0.2
07/10:00pm 12.5 9.4 7.2 70 2.6 NW 13 17 7 9 1020.8 1020.9 0.2
07/09:30pm 12.6 9.4 6.9 68 2.8 NW 13 19 7 10 1020.8 1020.9 0.2
07/09:00pm 12.3 8.7 6.6 68 2.7 NW 15 20 8 11 1021.0 1021.1 0.2
07/08:30pm 12.6 9.0 6.6 67 2.9 NW 15 19 8 10 1020.8 1020.9 0.2
07/08:00pm 12.8 9.1 6.4 65 3.1 NW 15 19 8 10 1020.9 1021.0 0.2
07/07:30pm 13.1 9.0 6.2 63 3.3 WNW 17 20 9 11 1021.1 1021.2 0.2
07/07:00pm 13.7 8.7 6.6 62 3.4 WNW 22 30 12 16 1021.1 1021.2 0.2
07/06:30pm 13.8 9.0 7.3 65 3.2 WNW 22 28 12 15 1021.0 1021.1 0.2
07/06:00pm 14.3 10.6 8.0 66 3.1 WNW 17 22 9 12 1020.6 1020.7 0.2
07/05:30pm 14.6 11.4 8.5 67 3.1 NW 15 19 8 10 1020.2 1020.3 0.2
07/05:00pm 14.6 11.5 9.0 69 2.9 WNW 15 19 8 10 1019.9 1020.0 0.2
07/04:30pm 15.2 11.4 8.9 66 3.2 WNW 19 22 10 12 1019.8 1019.9 0.2
07/04:00pm 16.4 12.7 9.6 64 3.6 WNW 19 28 10 15 1019.6 1019.7 0.2
07/03:30pm 16.4 12.5 9.3 63 3.7 WNW 20 24 11 13 1019.5 1019.5 0.2
07/03:00pm 17.0 12.3 9.2 60 4.1 WNW 24 32 13 17 1019.4 1019.4 0.2
07/02:30pm 17.2 12.5 9.4 60 4.1 WNW 24 32 13 17 1019.1 1019.1 0.0
07/02:00pm 17.2 12.6 9.6 61 4.0 WNW 24 32 13 17 1019.2 1019.2 0.0
07/01:30pm 17.0 11.6 9.4 61 4.0 WNW 28 35 15 19 1019.2 1019.2 0.0
07/01:00pm 16.8 12.5 10.6 67 3.3 NW 24 32 13 17 1019.3 1019.3 0.0
07/12:30pm 16.5 11.7 10.4 67 3.3 WNW 26 33 14 18 1019.6 1019.7 0.0
07/12:00pm 16.1 10.4 9.8 66 3.3 WNW 30 37 16 20 1020.0 1020.1 0.0
07/11:30am 15.7 10.4 9.8 68 3.1 WNW 28 35 15 19 1020.5 1020.6 0.0
07/11:00am 15.0 10.1 9.8 71 2.7 WNW 26 37 14 20 1020.8 1020.9 0.0
07/10:30am 14.3 8.6 9.7 74 2.4 WNW 30 37 16 20 1021.0 1021.1 0.0
07/10:00am 13.3 7.4 9.0 75 2.2 WNW 30 41 16 22 1021.0 1021.1 0.0
07/09:30am 13.0 7.9 9.1 77 2.0 WNW 26 33 14 18 1021.1 1021.2 0.0
07/09:00am 12.0 7.5 8.7 80 1.6 NW 22 28 12 15 1021.1 1021.2 3.6
07/08:30am 11.1 6.1 8.1 82 1.5 NW 24 35 13 19 1020.9 1021.0 3.6
07/08:00am 10.4 5.3 7.6 83 1.3 NNW 24 39 13 21 1020.5 1020.6 3.6
07/07:30am 9.7 5.0 7.6 87 1.0 NNW 22 37 12 20 1020.4 1020.5 3.6
07/07:00am 8.9 4.4 7.0 88 0.9 NNW 20 28 11 15 1020.4 1020.5 3.6
07/06:30am 9.0 4.5 7.0 87 0.9 NNW 20 28 11 15 1020.0 1020.1 3.6
07/06:00am 9.5 5.1 7.3 86 1.0 NNW 20 32 11 17 1019.9 1020.0 3.6
07/05:30am 9.8 5.1 7.6 86 1.1 NNW 22 32 12 17 1019.9 1020.0 3.6
07/05:00am 10.1 5.7 7.5 84 1.2 NNW 20 32 11 17 1019.8 1019.9 3.6
07/04:30am 10.3 5.6 7.7 84 1.3 NNW 22 28 12 15 1019.7 1019.8 3.6
07/04:00am 10.5 5.8 7.6 82 1.4 NNW 22 30 12 16 1019.7 1019.8 3.6
07/03:30am 10.8 6.5 7.9 82 1.4 NNW 20 28 11 15 1019.6 1019.7 3.6
07/03:00am 10.7 6.1 8.1 84 1.3 NNW 22 32 12 17 1019.9 1020.0 3.6
07/02:30am 11.3 7.1 8.3 82 1.5 NNW 20 28 11 15 1019.7 1019.8 3.6
07/02:00am 10.9 7.3 8.5 85 1.2 NNW 17 22 9 12 1020.0 1020.1 3.6
07/01:30am 11.6 7.3 9.3 86 1.2 NNW 22 30 12 16 1019.9 1020.0 3.6
07/01:00am 11.0 7.8 9.8 92 0.6 NNW 17 22 9 12 1019.7 1019.8 3.6
07/12:30am 11.1 7.4 10.0 93 0.6 N 20 28 11 15 1019.5 1019.5 3.6
07/12:00am 11.5 7.5 10.4 93 0.6 N 22 30 12 16 1019.6 1019.7 3.6
 
Date/Time
WST
Temp
°C
App
Temp
°C
Dew
Point
°C
Rel
Hum
%
Delta-T
°C
Wind Press
QNH
hPa
Press
MSL
hPa
Rain since
9am
mm
Dir  Spd
km/h
Gust
km/h
Spd
kts
Gust
kts
06/11:30pm 11.6 7.7 10.7 94 0.5 N 22 28 12 15 1019.9 1020.0 3.6
06/11:00pm 11.3 7.3 10.4 94 0.5 N 22 28 12 15 1019.7 1019.8 3.6
06/10:30pm 11.4 7.7 10.3 93 0.6 N 20 28 11 15 1020.0 1020.1 3.6
06/10:00pm 11.2 7.5 10.1 93 0.6 N 20 26 11 14 1019.9 1020.0 3.6
06/09:30pm 11.6 8.0 10.5 93 0.6 N 20 24 11 13 1019.9 1020.0 3.6
06/09:00pm 11.8 8.7 10.4 91 0.7 N 17 20 9 11 1020.0 1020.1 3.6
06/08:30pm 11.6 8.2 10.5 93 0.6 N 19 22 10 12 1020.1 1020.2 3.6
06/08:00pm 11.8 8.4 10.4 91 0.7 N 19 20 10 11 1020.1 1020.2 3.6
06/07:30pm 12.2 9.2 10.6 90 0.8 N 17 22 9 12 1019.6 1019.7 3.6
06/07:00pm 12.9 9.7 11.3 90 0.8 N 19 24 10 13 1019.5 1019.5 3.6
06/06:30pm 13.4 10.3 11.5 88 1.0 N 19 24 10 13 1019.1 1019.1 3.6
06/06:00pm 13.1 9.7 11.2 88 1.0 N 20 26 11 14 1018.7 1018.7 3.6
06/05:30pm 13.0 9.6 11.1 88 1.0 N 20 28 11 15 1018.2 1018.2 3.6
06/05:07pm 14.7 10.2 12.6 87 1.2 NNE 28 43 15 23 1017.4 1017.4 3.6
06/05:00pm 13.8 9.6 12.5 92 0.7 N 26 46 14 25 1017.1 1017.1 3.6
06/04:54pm 13.1 7.1 12.0 93 0.6 NNW 35 54 19 29 1018.3 1018.3 3.4
06/04:46pm 13.0 5.9 10.9 87 1.1 NW 39 54 21 29 1019.5 1019.5 2.6
06/04:40pm 13.5 6.9 11.2 86 1.2 NW 37 54 20 29 1019.7 1019.8 2.0
06/04:32pm 14.1 9.7 11.6 85 1.3 WNW 26 48 14 26 1019.7 1019.8 1.0
06/04:30pm 13.9 9.9 11.8 87 1.1 W 24 41 13 22 1019.4 1019.4 1.0
06/04:00pm 14.3 8.2 11.8 85 1.4 W 35 43 19 23 1018.6 1018.6 0.6
06/03:30pm 15.4 11.9 11.0 75 2.4 WNW 20 28 11 15 1017.6 1017.6 0.2
06/03:00pm 17.8 13.5 10.7 63 3.8 N 24 28 13 15 1016.1 1016.2 0.0
06/02:30pm 17.3 10.8 10.4 64 3.7 NNE 35 48 19 26 1015.3 1015.4 0.0
06/02:00pm 17.1 11.3 9.3 60 4.1 NE 30 57 16 31 1015.4 1015.5 0.0
06/01:59pm 16.8 11.4 9.5 62 3.8 NE 28 52 15 28 1015.3 1015.4 0.0
06/01:30pm 16.4 9.8 8.4 59 4.1 NNE 33 44 18 24 1016.8 1016.8 0.0
06/01:00pm 16.3 8.9 8.3 59 4.1 NNE 37 46 20 25 1017.2 1017.2 0.0
06/12:30pm 17.3 12.0 8.4 56 4.6 NNE 26 39 14 21 1017.2 1017.2 0.0
06/12:00pm 17.4 12.7 10.5 64 3.7 NNW 26 37 14 20 1018.3 1018.3 0.0
06/11:30am 20.5 15.8 9.4 49 5.9 N 24 32 13 17 1018.1 1018.1 0.0
06/11:00am 21.0 14.0 8.3 44 6.7 NNW 35 46 19 25 1018.3 1018.3 0.0
06/10:32am 18.3 10.4 6.2 45 6.0 NNW 37 61 20 33 1017.6 1017.6 0.0
06/10:30am 17.4 9.8 5.7 46 5.7 NNW 35 48 19 26 1017.7 1017.7 0.0
06/10:00am 17.2 8.4 3.8 41 6.3 NNW 39 57 21 31 1017.8 1017.8 0.0
06/09:59am 17.0 8.3 4.0 42 6.1 NNW 39 57 21 31 1017.9 1017.9 0.0
06/09:30am 16.9 7.7 3.6 41 6.2 NNW 41 56 22 30 1018.1 1018.1 0.0
06/09:00am 15.1 7.6 3.6 46 5.3 N 32 41 17 22 1017.7 1017.7 0.0
06/08:30am 14.9 7.2 2.4 43 5.6 N 32 43 17 23 1017.5 1017.5 0.0
06/08:00am 14.2 6.3 2.5 45 5.2 N 33 43 18 23 1017.6 1017.6 0.0
06/07:30am 13.7 5.4 2.0 45 5.1 N 35 46 19 25 1017.8 1017.8 0.0
06/07:00am 13.7 5.4 2.0 45 5.1 N 35 44 19 24 1017.8 1017.8 0.0
06/06:30am 13.0 5.2 1.7 46 4.9 N 32 39 17 21 1017.9 1017.9 0.0
06/06:00am 13.5 5.7 1.8 45 5.1 NNE 32 39 17 21 1017.8 1017.8 0.0
06/05:30am 13.5 5.5 1.8 45 5.1 NNE 33 44 18 24 1017.8 1017.8 0.0
06/05:00am 13.7 5.9 2.0 45 5.1 NNE 32 41 17 22 1017.9 1017.9 0.0
06/04:30am 13.4 6.0 2.0 46 5.0 NNE 30 41 16 22 1017.9 1017.9 0.0
06/04:00am 13.2 6.3 2.4 48 4.8 NNE 28 39 15 21 1018.2 1018.2 0.0
06/03:30am 13.2 6.3 2.4 48 4.8 NNE 28 37 15 20 1018.4 1018.4 0.0
06/03:00am 13.4 6.5 2.6 48 4.8 NNE 28 37 15 20 1018.5 1018.5 0.0
06/02:30am 13.2 6.8 3.0 50 4.6 NNE 26 33 14 18 1018.7 1018.7 0.0
06/02:00am 12.9 6.9 3.3 52 4.3 NNE 24 33 13 18 1018.8 1018.8 0.0
06/01:30am 13.3 7.3 3.1 50 4.6 NNE 24 32 13 17 1019.0 1019.0 0.0
06/01:00am 13.2 7.6 3.3 51 4.4 NNE 22 28 12 15 1019.1 1019.1 0.0
06/12:30am 13.6 8.0 3.4 50 4.6 NNE 22 32 12 17 1019.3 1019.3 0.0
06/12:00am 13.6 8.0 3.4 50 4.6 NNE 22 35 12 19 1019.5 1019.5 0.0
 
Date/Time
WST
Temp
°C
App
Temp
°C
Dew
Point
°C
Rel
Hum
%
Delta-T
°C
Wind Press
QNH
hPa
Press
MSL
hPa
Rain since
9am
mm
Dir  Spd
km/h
Gust
km/h
Spd
kts
Gust
kts
05/11:30pm 13.6 8.0 3.7 51 4.5 NNE 22 32 12 17 1020.0 1020.1 0.0
05/11:00pm 13.7 8.5 3.8 51 4.5 NNE 20 28 11 15 1020.2 1020.3 0.0
05/10:30pm 13.8 8.7 3.9 51 4.5 NNE 20 26 11 14 1020.5 1020.6 0.0
05/10:00pm 14.1 8.6 3.8 50 4.7 NNE 22 32 12 17 1020.3 1020.4 0.0

Other formats

Comma delimited format used in spreadsheet applications
http://www.bom.gov.au/fwo/IDW60801/IDW60801.95638.axf

JavaScript Object Notation format (JSON) in row-major order
http://www.bom.gov.au/fwo/IDW60801/IDW60801.95638.json

Data quality

Most of these data are generated automatically and are frequently updated. Quality checks on data are not normally performed. It is possible for incorrect values to appear. Refer to information at About Latest Weather Observations and please check the disclaimer before using these data.